createdAt,value
2023-06-22T00:01:23.518Z,100454.13
2023-06-22T00:03:50.444Z,100449.03
2023-06-22T00:06:17.216Z,100454.47
2023-06-22T00:08:43.906Z,100463.22
2023-06-22T00:11:10.573Z,100463.91
2023-06-22T00:13:37.342Z,100463.63
2023-06-22T00:16:04.331Z,100465.38
2023-06-22T00:18:31.876Z,100472.16
2023-06-22T00:20:59.572Z,100469.84
2023-06-22T00:23:27.186Z,100473.22
2023-06-22T00:25:54.015Z,100479.09
2023-06-22T00:28:21.146Z,100488.38
2023-06-22T00:30:48.683Z,100491.22
2023-06-22T00:33:17.353Z,100486.91
2023-06-22T00:35:44.154Z,100479.81
2023-06-22T00:38:10.934Z,100482.25
2023-06-22T00:40:39.128Z,100479.88
2023-06-22T00:43:06.434Z,100476.03
2023-06-22T00:45:33.179Z,100483.91
2023-06-22T00:48:00.678Z,100483.44
2023-06-22T00:50:34.789Z,100490.03
2023-06-22T00:53:10.600Z,100476.47
2023-06-22T00:55:52.582Z,100478.06
2023-06-22T00:58:22.902Z,100477.38
2023-06-22T01:00:50.098Z,100485.75
2023-06-22T01:03:18.327Z,100480.78
2023-06-22T01:05:47.840Z,100477.09
2023-06-22T01:08:23.213Z,100483.78
2023-06-22T01:10:59.803Z,100475.22
2023-06-22T01:13:38.634Z,100473.53
2023-06-22T01:16:08.833Z,100481.22
2023-06-22T01:18:38.737Z,100475.06
2023-06-22T01:21:10.922Z,100482.50
2023-06-22T01:23:55.032Z,100477.19
2023-06-22T01:26:44.879Z,100467.81
2023-06-22T01:29:14.893Z,100474.13
2023-06-22T01:31:43.860Z,100477.28
2023-06-22T01:34:11.975Z,100481.47
2023-06-22T01:36:40.100Z,100477.63
2023-06-22T01:39:08.406Z,100474.53
2023-06-22T01:41:38.192Z,100480.88
2023-06-22T01:44:08.422Z,100475.88
2023-06-22T01:46:36.444Z,100473.94
2023-06-22T01:49:07.271Z,100479.25
2023-06-22T01:51:38.163Z,100487.31
2023-06-22T01:54:07.596Z,100472.47
2023-06-22T01:56:34.187Z,100461.94
2023-06-22T01:59:34.005Z,100470.94
2023-06-22T02:02:08.962Z,100470.28
2023-06-22T02:04:44.480Z,100473.75
2023-06-22T02:07:15.316Z,100473.09
2023-06-22T02:09:45.458Z,100479.00
2023-06-22T02:12:14.840Z,100465.19
2023-06-22T02:14:42.007Z,100461.91
2023-06-22T02:17:16.649Z,100458.44
2023-06-22T02:19:43.210Z,100457.63
2023-06-22T02:22:10.304Z,100455.03
2023-06-22T02:24:36.863Z,100464.56
2023-06-22T02:27:03.805Z,100468.53
2023-06-22T02:29:30.779Z,100473.88
2023-06-22T02:31:57.404Z,100472.94
2023-06-22T02:34:24.081Z,100472.94
2023-06-22T02:36:53.770Z,100471.34
2023-06-22T02:39:25.534Z,100461.63
2023-06-22T02:41:55.800Z,100475.47
2023-06-22T02:44:22.744Z,100486.50
2023-06-22T02:46:49.531Z,100490.97
2023-06-22T02:49:16.409Z,100489.41
2023-06-22T02:51:48.475Z,100491.19
2023-06-22T02:54:15.112Z,100492.94
2023-06-22T02:56:44.878Z,100497.56
2023-06-22T02:59:12.077Z,100487.16
2023-06-22T03:01:41.783Z,100491.97
2023-06-22T03:04:09.374Z,100479.28
2023-06-22T03:06:37.272Z,100493.13
2023-06-22T03:09:05.809Z,100497.34
2023-06-22T03:11:33.103Z,100496.81
2023-06-22T03:14:00.325Z,100493.38
2023-06-22T03:16:27.065Z,100480.69
2023-06-22T03:18:57.084Z,100479.16
2023-06-22T03:21:24.647Z,100484.00
2023-06-22T03:23:51.389Z,100473.97
2023-06-22T03:26:19.167Z,100453.97
2023-06-22T03:28:45.760Z,100443.38
2023-06-22T03:31:12.374Z,100449.31
2023-06-22T03:33:39.061Z,100454.78
2023-06-22T03:36:05.707Z,100463.28
2023-06-22T03:38:32.477Z,100465.19
2023-06-22T03:40:59.058Z,100461.38
2023-06-22T03:43:25.712Z,100462.00
2023-06-22T03:45:52.319Z,100457.94
2023-06-22T03:48:19.012Z,100460.09
2023-06-22T03:50:45.735Z,100465.44
2023-06-22T03:53:12.329Z,100461.50
2023-06-22T03:55:38.997Z,100457.69
2023-06-22T03:58:06.980Z,100461.50
2023-06-22T04:00:33.771Z,100461.22
2023-06-22T04:03:00.467Z,100465.88
2023-06-22T04:05:27.196Z,100464.38
2023-06-22T04:07:53.798Z,100457.72
2023-06-22T04:10:20.369Z,100469.28
2023-06-22T04:12:46.937Z,100478.38
2023-06-22T04:15:13.508Z,100489.75
2023-06-22T04:17:40.158Z,100484.19
2023-06-22T04:20:07.830Z,100480.69
2023-06-22T04:22:34.418Z,100477.06
2023-06-22T04:25:01.073Z,100471.25
2023-06-22T04:27:27.647Z,100478.47
2023-06-22T04:29:54.223Z,100481.09
2023-06-22T04:32:20.904Z,100469.94
2023-06-22T04:34:47.509Z,100486.03
2023-06-22T04:37:16.541Z,100486.56
2023-06-22T04:39:44.433Z,100491.44
2023-06-22T04:42:11.109Z,100493.13
2023-06-22T04:44:37.741Z,100491.97
2023-06-22T04:47:05.132Z,100503.69
2023-06-22T04:49:37.074Z,100509.81
2023-06-22T04:52:08.726Z,100519.84
2023-06-22T04:54:37.448Z,100520.78
2023-06-22T04:57:06.327Z,100530.81
2023-06-22T04:59:33.027Z,100532.59
2023-06-22T05:02:03.344Z,100529.59
2023-06-22T05:04:34.180Z,100532.09
2023-06-22T05:07:01.575Z,100537.22
2023-06-22T05:09:28.406Z,100553.31
2023-06-22T05:11:55.362Z,100553.19
2023-06-22T05:14:22.065Z,100563.13
2023-06-22T05:16:50.215Z,100562.97
2023-06-22T05:19:16.802Z,100564.69
2023-06-22T05:21:43.380Z,100561.72
2023-06-22T05:24:09.960Z,100554.34
2023-06-22T05:26:37.062Z,100566.50
2023-06-22T05:29:04.156Z,100567.16
2023-06-22T05:31:31.142Z,100566.41
2023-06-22T05:33:57.968Z,100559.34
2023-06-22T05:36:27.448Z,100553.31
2023-06-22T05:38:54.349Z,100540.88
2023-06-22T05:41:21.063Z,100530.66
2023-06-22T05:43:47.930Z,100529.81
2023-06-22T05:46:14.897Z,100539.41
2023-06-22T05:48:41.656Z,100544.13
2023-06-22T05:51:08.266Z,100540.34
2023-06-22T05:53:34.945Z,100541.94
2023-06-22T05:56:01.566Z,100537.25
2023-06-22T05:58:28.159Z,100536.91
2023-06-22T06:00:54.913Z,100535.41
2023-06-22T06:03:21.483Z,100530.50
2023-06-22T06:05:48.763Z,100528.16
2023-06-22T06:08:15.432Z,100529.00
2023-06-22T06:10:42.279Z,100525.13
2023-06-22T06:13:09.192Z,100526.81
2023-06-22T06:15:35.942Z,100526.09
2023-06-22T06:18:05.491Z,100507.13
2023-06-22T06:20:32.815Z,100500.41
2023-06-22T06:22:59.871Z,100490.47
2023-06-22T06:25:27.149Z,100481.69
2023-06-22T06:27:55.777Z,100443.16
2023-06-22T06:30:23.368Z,100404.13
2023-06-22T06:32:50.645Z,100396.84
2023-06-22T06:35:17.970Z,100402.59
2023-06-22T06:37:46.571Z,100410.28
2023-06-22T06:40:14.784Z,100429.22
2023-06-22T06:42:45.516Z,100437.22
2023-06-22T06:45:20.540Z,100437.13
2023-06-22T06:47:47.959Z,100437.25
2023-06-22T06:50:14.713Z,100416.81
2023-06-22T06:52:41.587Z,100411.88
2023-06-22T06:55:09.317Z,100410.22
2023-06-22T06:57:36.340Z,100426.97
2023-06-22T07:00:03.707Z,100424.34
2023-06-22T07:02:30.455Z,100425.28
2023-06-22T07:04:57.092Z,100432.13
2023-06-22T07:07:24.081Z,100426.84
2023-06-22T07:09:50.730Z,100428.06
2023-06-22T07:12:17.358Z,100436.56
2023-06-22T07:14:43.945Z,100427.63
2023-06-22T07:17:10.519Z,100429.97
2023-06-22T07:19:37.160Z,100425.31
2023-06-22T07:22:04.066Z,100430.50
2023-06-22T07:24:30.824Z,100432.00
2023-06-22T07:27:00.198Z,100434.56
2023-06-22T07:29:27.934Z,100431.22
2023-06-22T07:31:54.586Z,100428.47
2023-06-22T07:34:21.348Z,100432.91
2023-06-22T07:36:48.396Z,100426.47
2023-06-22T07:39:15.806Z,100431.38
2023-06-22T07:41:44.664Z,100424.44
2023-06-22T07:44:11.318Z,100421.44
2023-06-22T07:46:37.981Z,100416.44
2023-06-22T07:49:04.674Z,100430.16
2023-06-22T07:51:31.260Z,100422.06
2023-06-22T07:53:57.932Z,100430.09
2023-06-22T07:56:24.596Z,100433.31
2023-06-22T07:58:51.340Z,100423.06
2023-06-22T08:01:18.561Z,100427.41
2023-06-22T08:03:45.309Z,100427.63
2023-06-22T08:06:12.062Z,100421.47
2023-06-22T08:08:40.127Z,100406.84
2023-06-22T08:11:18.650Z,100413.22
2023-06-22T08:13:45.636Z,100415.34
2023-06-22T08:16:14.232Z,100409.16
2023-06-22T08:18:40.881Z,100408.69
2023-06-22T08:21:07.575Z,100408.94
2023-06-22T08:23:37.254Z,100400.59
2023-06-22T08:26:03.915Z,100404.97
2023-06-22T08:28:30.571Z,100400.16
2023-06-22T08:30:57.421Z,100405.41
2023-06-22T08:33:29.566Z,100394.47
2023-06-22T08:35:56.735Z,100395.50
2023-06-22T08:38:23.364Z,100389.44
2023-06-22T08:40:50.134Z,100386.72
2023-06-22T08:43:17.066Z,100387.75
2023-06-22T08:45:43.774Z,100385.88
2023-06-22T08:48:11.982Z,100386.31
2023-06-22T08:50:38.615Z,100386.91
2023-06-22T08:53:05.257Z,100381.66
2023-06-22T08:55:32.129Z,100378.53
2023-06-22T08:57:59.162Z,100389.03
2023-06-22T09:00:25.991Z,100385.69
2023-06-22T09:02:52.791Z,100379.63
2023-06-22T09:05:21.680Z,100370.25
2023-06-22T09:07:51.654Z,100372.13
2023-06-22T09:10:21.772Z,100374.22
2023-06-22T09:12:51.629Z,100374.84
2023-06-22T09:15:19.001Z,100367.53
2023-06-22T09:17:47.989Z,100368.16
2023-06-22T09:20:15.890Z,100367.94
2023-06-22T09:22:42.818Z,100359.97
2023-06-22T09:25:09.862Z,100359.31
2023-06-22T09:27:36.506Z,100361.19
2023-06-22T09:30:04.719Z,100359.28
2023-06-22T09:32:31.400Z,100363.59
2023-06-22T09:34:58.235Z,100352.84
2023-06-22T09:37:24.859Z,100347.66
2023-06-22T09:39:51.521Z,100353.19
2023-06-22T09:42:18.139Z,100348.72
2023-06-22T09:44:44.731Z,100351.25
2023-06-22T09:47:11.378Z,100346.59
2023-06-22T09:49:48.106Z,100343.84
2023-06-22T09:52:15.662Z,100339.91
2023-06-22T09:54:42.304Z,100340.75
2023-06-22T09:57:08.917Z,100332.25
2023-06-22T09:59:35.595Z,100344.25
2023-06-22T10:02:02.309Z,100335.41
2023-06-22T10:04:29.339Z,100330.34
2023-06-22T10:06:56.081Z,100330.63
2023-06-22T10:09:22.720Z,100323.81
2023-06-22T10:11:49.469Z,100325.41
2023-06-22T10:14:16.278Z,100329.91
2023-06-22T10:16:42.969Z,100329.34
2023-06-22T10:19:09.723Z,100322.06
2023-06-22T10:21:36.355Z,100315.75
2023-06-22T10:24:07.671Z,100317.28
2023-06-22T10:26:35.272Z,100315.19
2023-06-22T10:29:15.926Z,100316.81
2023-06-22T10:31:44.094Z,100304.28
2023-06-22T10:34:10.835Z,100316.25
2023-06-22T10:36:37.533Z,100306.03
2023-06-22T10:39:04.533Z,100298.28
2023-06-22T10:41:32.038Z,100287.09
2023-06-22T10:43:59.229Z,100289.25
2023-06-22T10:46:29.231Z,100285.78
2023-06-22T10:48:58.169Z,100284.75
2023-06-22T10:51:24.895Z,100279.78
2023-06-22T10:53:52.179Z,100281.56
2023-06-22T10:56:19.756Z,100283.09
2023-06-22T10:58:46.947Z,100281.47
2023-06-22T11:01:30.031Z,100284.41
2023-06-22T11:04:00.820Z,100279.38
2023-06-22T11:06:27.607Z,100283.41
2023-06-22T11:09:04.419Z,100277.47
2023-06-22T11:11:33.996Z,100284.19
2023-06-22T11:14:00.858Z,100276.16
2023-06-22T11:16:28.372Z,100267.03
2023-06-22T11:18:55.133Z,100269.16
2023-06-22T11:21:21.792Z,100267.53
2023-06-22T11:23:48.462Z,100268.63
2023-06-22T11:26:15.242Z,100268.25
2023-06-22T11:28:41.992Z,100263.94
2023-06-22T11:31:24.368Z,100244.59
2023-06-22T11:33:52.636Z,100250.53
2023-06-22T11:36:20.016Z,100246.34
2023-06-22T11:38:46.770Z,100240.47
2023-06-22T11:41:13.449Z,100244.34
2023-06-22T11:43:40.103Z,100243.63
2023-06-22T11:46:07.331Z,100238.13
2023-06-22T11:48:36.557Z,100233.94
2023-06-22T11:51:04.163Z,100237.25
2023-06-22T11:53:31.249Z,100236.53
2023-06-22T11:55:57.981Z,100236.66
2023-06-22T11:58:24.649Z,100235.31
2023-06-22T12:00:52.617Z,100225.28
2023-06-22T12:03:20.640Z,100215.50
2023-06-22T12:05:47.672Z,100220.56
2023-06-22T12:08:15.099Z,100206.97
2023-06-22T12:10:42.063Z,100209.66
2023-06-22T12:13:13.350Z,100199.25
2023-06-22T12:15:40.094Z,100206.56
2023-06-22T12:18:06.816Z,100206.44
2023-06-22T12:20:33.710Z,100191.72
2023-06-22T12:23:00.409Z,100193.53
2023-06-22T12:25:27.076Z,100190.78
2023-06-22T12:27:53.784Z,100183.72
2023-06-22T12:30:20.516Z,100180.94
2023-06-22T12:32:47.320Z,100185.72
2023-06-22T12:35:15.367Z,100185.63
2023-06-22T12:37:45.301Z,100177.00
2023-06-22T12:40:12.380Z,100167.84
2023-06-22T12:42:39.025Z,100165.72
2023-06-22T12:45:06.557Z,100159.72
2023-06-22T12:47:33.230Z,100151.19
2023-06-22T12:49:59.931Z,100151.53
2023-06-22T12:52:26.971Z,100147.81
2023-06-22T12:54:55.733Z,100145.66
2023-06-22T12:57:23.018Z,100149.88
2023-06-22T12:59:49.753Z,100150.03
2023-06-22T13:02:16.565Z,100143.28
2023-06-22T13:04:44.237Z,100140.91
2023-06-22T13:07:21.590Z,100142.06
2023-06-22T13:09:53.068Z,100150.84
2023-06-22T13:12:23.987Z,100143.44
2023-06-22T13:14:50.839Z,100148.31
2023-06-22T13:17:17.555Z,100138.16
2023-06-22T13:19:44.214Z,100135.59
2023-06-22T13:22:44.137Z,100127.91
2023-06-22T13:25:14.257Z,100125.44
2023-06-22T13:27:41.955Z,100131.38
2023-06-22T13:33:09.191Z,100134.25
2023-06-22T13:35:38.934Z,100113.06
2023-06-22T13:38:05.613Z,100109.50
2023-06-22T13:40:32.539Z,100105.31
2023-06-22T13:42:59.146Z,100094.59
2023-06-22T13:45:25.924Z,100098.03
2023-06-22T13:47:52.532Z,100080.31
2023-06-22T13:50:19.522Z,100072.69
2023-06-22T13:52:46.101Z,100064.63
2023-06-22T13:55:15.203Z,100071.06
2023-06-22T13:57:42.011Z,100066.63
2023-06-22T14:00:09.517Z,100074.00
2023-06-22T14:02:36.267Z,100071.63
2023-06-22T14:05:03.750Z,100067.41
2023-06-22T14:07:30.399Z,100068.84
2023-06-22T14:09:57.061Z,100067.59
2023-06-22T14:12:23.636Z,100063.19
2023-06-22T14:14:50.248Z,100062.09
2023-06-22T14:17:17.002Z,100052.69
2023-06-22T14:19:43.591Z,100054.75
2023-06-22T14:22:10.265Z,100062.31
2023-06-22T14:24:36.893Z,100045.53
2023-06-22T14:27:04.472Z,100036.25
2023-06-22T14:29:31.108Z,100033.97
2023-06-22T14:32:00.788Z,100031.41
2023-06-22T14:34:27.418Z,100029.56
2023-06-22T14:36:53.984Z,100024.91
2023-06-22T14:39:22.109Z,100025.63
2023-06-22T14:41:51.250Z,100028.53
2023-06-22T14:44:18.276Z,100025.28
2023-06-22T14:46:44.939Z,100021.53
2023-06-22T14:49:11.707Z,100005.75
2023-06-22T14:51:38.406Z,100002.56
2023-06-22T14:54:05.151Z,99999.25
2023-06-22T14:56:32.944Z,99990.13
2023-06-22T14:59:00.233Z,99983.56
2023-06-22T15:01:26.897Z,99978.41
2023-06-22T15:03:53.665Z,99974.03
2023-06-22T15:06:20.283Z,99973.13
2023-06-22T15:08:47.452Z,99980.06
2023-06-22T15:11:14.209Z,99979.88
2023-06-22T15:13:42.007Z,99971.44
2023-06-22T15:16:09.326Z,99974.28
2023-06-22T15:18:36.645Z,99976.88
2023-06-22T15:21:05.093Z,99968.06
2023-06-22T15:23:32.724Z,99965.72
2023-06-22T15:26:00.161Z,99960.38
2023-06-22T15:28:26.835Z,99951.97
2023-06-22T15:30:53.819Z,99947.28
2023-06-22T15:33:20.604Z,99943.13
2023-06-22T15:35:47.392Z,99935.41
2023-06-22T15:38:14.131Z,99940.09
2023-06-22T15:40:40.798Z,99925.66
2023-06-22T15:43:07.333Z,99921.00
2023-06-22T15:45:33.978Z,99926.28
2023-06-22T15:48:00.680Z,99916.53
2023-06-22T15:50:27.463Z,99910.78
2023-06-22T15:52:54.266Z,99905.91
2023-06-22T15:55:20.905Z,99895.78
2023-06-22T15:57:48.169Z,99887.84
2023-06-22T16:00:18.962Z,99888.53
2023-06-22T16:02:47.197Z,99883.59
2023-06-22T16:05:14.239Z,99891.25
2023-06-22T16:07:40.975Z,99895.66
2023-06-22T16:10:08.406Z,99885.75
2023-06-22T16:12:36.277Z,99882.22
2023-06-22T16:15:04.970Z,99880.91
2023-06-22T16:17:31.792Z,99882.00
2023-06-22T16:20:00.691Z,99876.06
2023-06-22T16:22:33.761Z,99886.25
2023-06-22T16:25:00.459Z,99885.44
2023-06-22T16:27:29.359Z,99869.94
2023-06-22T16:29:56.187Z,99865.94
2023-06-22T16:32:22.851Z,99874.13
2023-06-22T16:34:49.508Z,99880.19
2023-06-22T16:37:16.106Z,99898.09
2023-06-22T16:39:42.794Z,99889.78
2023-06-22T16:42:19.445Z,99887.16
2023-06-22T16:44:46.307Z,99885.19
2023-06-22T16:47:13.009Z,99870.41
2023-06-22T16:49:39.777Z,99866.66
2023-06-22T16:52:07.163Z,99875.00
2023-06-22T16:54:34.554Z,99873.53
2023-06-22T16:57:02.957Z,99873.72
2023-06-22T16:59:29.845Z,99857.78
2023-06-22T17:01:58.106Z,99847.31
2023-06-22T17:04:25.745Z,99848.13
2023-06-22T17:07:00.120Z,99842.25
2023-06-22T17:09:57.621Z,99835.25
2023-06-22T17:12:26.159Z,99835.75
2023-06-22T17:14:53.576Z,99828.69
2023-06-22T17:17:22.728Z,99816.50
2023-06-22T17:19:49.557Z,99810.75
2023-06-22T17:22:16.262Z,99803.81
2023-06-22T17:24:45.689Z,99799.19
2023-06-22T17:27:12.277Z,99800.91
2023-06-22T17:29:38.853Z,99795.63
2023-06-22T17:32:09.337Z,99801.94
2023-06-22T17:34:36.557Z,99803.50
2023-06-22T17:37:03.376Z,99801.63
2023-06-22T17:39:30.332Z,99797.84
2023-06-22T17:41:57.432Z,99791.16
2023-06-22T17:44:25.911Z,99790.13
2023-06-22T17:46:56.041Z,99787.66
2023-06-22T17:49:27.570Z,99789.88
2023-06-22T17:51:54.207Z,99777.84
2023-06-22T17:54:27.587Z,99774.19
2023-06-22T17:57:01.429Z,99781.66
2023-06-22T17:59:30.359Z,99768.75
2023-06-22T18:01:57.001Z,99761.75
2023-06-22T18:04:24.406Z,99751.31
2023-06-22T18:06:51.419Z,99743.94
2023-06-22T18:09:18.951Z,99745.91
2023-06-22T18:11:56.726Z,99739.97
2023-06-22T18:14:23.456Z,99744.34
2023-06-22T18:16:52.031Z,99735.38
2023-06-22T18:19:19.104Z,99742.91
2023-06-22T18:21:49.640Z,99748.94
2023-06-22T18:24:17.881Z,99748.91
2023-06-22T18:26:45.778Z,99741.66
2023-06-22T18:29:13.260Z,99734.81
2023-06-22T18:31:40.271Z,99735.53
2023-06-22T18:34:14.965Z,99735.31
2023-06-22T18:36:48.164Z,99729.66
2023-06-22T18:39:16.296Z,99723.91
2023-06-22T18:42:05.749Z,99724.91
2023-06-22T18:44:42.070Z,99726.09
2023-06-22T18:47:10.089Z,99735.78
2023-06-22T18:49:50.317Z,99739.09
2023-06-22T18:52:18.746Z,99731.56
2023-06-22T18:54:49.940Z,99734.03
2023-06-22T18:57:17.746Z,99743.47
2023-06-22T18:59:46.623Z,99738.84
2023-06-22T19:02:34.302Z,99730.16
2023-06-22T19:05:17.033Z,99745.09
2023-06-22T19:07:52.733Z,99746.41
2023-06-22T19:10:30.089Z,99744.13
2023-06-22T19:13:12.312Z,99752.75
2023-06-22T19:15:41.853Z,99755.28
2023-06-22T19:18:25.978Z,99745.53
2023-06-22T19:20:54.600Z,99745.72
2023-06-22T19:23:25.700Z,99754.72
2023-06-22T19:25:58.113Z,99744.13
2023-06-22T19:28:29.105Z,99746.41
2023-06-22T19:30:58.145Z,99732.06
2023-06-22T19:33:26.907Z,99733.34
2023-06-22T19:35:58.044Z,99726.22
2023-06-22T19:38:28.493Z,99719.66
2023-06-22T19:40:55.476Z,99704.16
2023-06-22T19:43:22.981Z,99705.25
2023-06-22T19:45:49.715Z,99703.47
2023-06-22T19:48:16.628Z,99713.56
2023-06-22T19:50:45.959Z,99709.81
2023-06-22T19:53:16.231Z,99708.56
2023-06-22T19:55:44.513Z,99702.38
2023-06-22T19:58:13.194Z,99683.34
2023-06-22T20:00:40.681Z,99673.81
2023-06-22T20:03:16.378Z,99673.81
2023-06-22T20:05:44.841Z,99673.84
2023-06-22T20:08:13.495Z,99676.81
2023-06-22T20:10:40.455Z,99687.63
2023-06-22T20:13:15.681Z,99691.09
2023-06-22T20:15:49.461Z,99687.69
2023-06-22T20:18:16.888Z,99681.84
2023-06-22T20:20:48.052Z,99658.41
2023-06-22T20:23:22.637Z,99648.59
2023-06-22T20:25:52.994Z,99633.34
2023-06-22T20:28:19.983Z,99625.88
2023-06-22T20:31:17.345Z,99623.56
2023-06-22T20:33:44.097Z,99626.03
2023-06-22T20:36:11.726Z,99624.41
2023-06-22T20:38:38.349Z,99623.06
2023-06-22T20:41:08.130Z,99627.69
2023-06-22T20:43:34.815Z,99623.78
2023-06-22T20:46:01.501Z,99625.56
2023-06-22T20:48:38.977Z,99623.53
2023-06-22T20:51:07.259Z,99613.53
2023-06-22T20:53:33.926Z,99601.25
2023-06-22T20:56:00.506Z,99578.50
2023-06-22T20:58:27.033Z,99568.25
2023-06-22T21:00:55.979Z,99566.31
2023-06-22T21:03:22.822Z,99576.03
2023-06-22T21:05:49.482Z,99586.31
2023-06-22T21:08:17.120Z,99597.31
2023-06-22T21:10:43.881Z,99596.94
2023-06-22T21:13:10.486Z,99610.16
2023-06-22T21:15:37.054Z,99618.13
2023-06-22T21:18:03.801Z,99628.38
2023-06-22T21:20:30.735Z,99645.41
2023-06-22T21:22:57.348Z,99652.88
2023-06-22T21:25:24.004Z,99660.31
2023-06-22T21:27:51.428Z,99663.16
2023-06-22T21:30:18.043Z,99663.78
2023-06-22T21:32:44.826Z,99681.00
2023-06-22T21:35:11.992Z,99705.69
2023-06-22T21:37:39.220Z,99716.94
2023-06-22T21:40:07.761Z,99718.00
2023-06-22T21:42:34.445Z,99704.25
2023-06-22T21:45:01.042Z,99677.94
2023-06-22T21:47:27.836Z,99645.81
2023-06-22T21:49:54.510Z,99646.75
2023-06-22T21:52:21.494Z,99634.19
2023-06-22T21:54:48.128Z,99648.53
2023-06-22T21:57:14.725Z,99644.47
2023-06-22T21:59:41.357Z,99629.03
2023-06-22T22:02:08.045Z,99637.38
2023-06-22T22:04:35.852Z,99655.97
2023-06-22T22:07:02.857Z,99696.59
2023-06-22T22:09:29.425Z,99713.72
2023-06-22T22:11:56.032Z,99722.31
2023-06-22T22:14:22.617Z,99728.53
2023-06-22T22:16:49.267Z,99722.31
2023-06-22T22:19:16.381Z,99738.19
2023-06-22T22:21:44.544Z,99754.75
2023-06-22T22:24:11.280Z,99750.31
2023-06-22T22:26:38.237Z,99746.22
2023-06-22T22:29:05.673Z,99745.22
2023-06-22T22:31:38.947Z,99747.84
2023-06-22T22:34:07.184Z,99764.91
2023-06-22T22:36:34.487Z,99783.81
2023-06-22T22:39:01.693Z,99797.56
2023-06-22T22:41:28.623Z,99798.81
2023-06-22T22:43:56.658Z,99771.00
2023-06-22T22:46:23.285Z,99790.03
2023-06-22T22:48:49.941Z,99794.84
2023-06-22T22:51:17.007Z,99782.91
2023-06-22T22:53:43.857Z,99778.44
2023-06-22T22:56:13.764Z,99775.66
2023-06-22T22:58:40.326Z,99782.25
2023-06-22T23:01:06.982Z,99786.13
2023-06-22T23:03:34.441Z,99800.25
2023-06-22T23:06:01.337Z,99822.16
2023-06-22T23:08:27.920Z,99886.84
2023-06-22T23:10:54.844Z,99965.97
2023-06-22T23:13:21.491Z,100043.69
2023-06-22T23:15:48.087Z,100075.16
2023-06-22T23:18:14.789Z,100025.97
2023-06-22T23:20:41.404Z,100025.44
2023-06-22T23:23:11.104Z,100052.31
2023-06-22T23:25:39.229Z,100060.38
2023-06-22T23:28:06.853Z,100061.97
2023-06-22T23:30:35.344Z,100074.19
2023-06-22T23:33:02.101Z,100072.88
2023-06-22T23:35:29.029Z,100053.16
2023-06-22T23:37:55.841Z,100052.03
2023-06-22T23:40:22.392Z,100050.28
2023-06-22T23:42:49.926Z,100025.31
2023-06-22T23:45:20.826Z,100019.56
2023-06-22T23:47:51.449Z,100009.53
2023-06-22T23:50:19.276Z,100022.44
2023-06-22T23:52:50.079Z,100040.22
2023-06-22T23:55:18.653Z,100039.91
2023-06-22T23:57:46.087Z,100028.19
